createdAt,value
2024-03-04T00:01:18.442Z,6.02
2024-03-04T00:03:58.200Z,6.01
2024-03-04T00:06:42.668Z,5.98
2024-03-04T00:09:22.185Z,5.85
2024-03-04T00:12:01.528Z,5.74
2024-03-04T00:14:41.386Z,5.74
2024-03-04T00:17:20.789Z,5.80
2024-03-04T00:20:00.603Z,5.83
2024-03-04T00:22:47.765Z,5.91
2024-03-04T00:25:27.172Z,5.91
2024-03-04T00:28:06.692Z,5.94
2024-03-04T00:30:46.051Z,5.96
2024-03-04T00:33:25.473Z,5.97
2024-03-04T00:36:04.875Z,6.00
2024-03-04T00:38:53.798Z,6.08
2024-03-04T00:41:33.823Z,6.08
2024-03-04T00:44:13.302Z,6.06
2024-03-04T00:46:52.888Z,6.02
2024-03-04T00:49:32.296Z,5.99
2024-03-04T00:52:12.784Z,5.95
2024-03-04T00:54:57.366Z,5.83
2024-03-04T00:57:36.739Z,5.69
2024-03-04T01:00:20.600Z,5.66
2024-03-04T01:03:00.194Z,5.55
2024-03-04T01:05:39.764Z,5.53
2024-03-04T01:08:19.139Z,5.56
2024-03-04T01:11:03.783Z,5.56
2024-03-04T01:13:43.198Z,5.55
2024-03-04T01:16:24.642Z,5.48
2024-03-04T01:19:04.192Z,5.37
2024-03-04T01:21:43.829Z,5.34
2024-03-04T01:24:23.300Z,5.33
2024-03-04T01:27:08.834Z,5.36
2024-03-04T01:29:48.898Z,5.34
2024-03-04T01:32:28.317Z,5.32
2024-03-04T01:35:10.003Z,5.29
2024-03-04T01:37:52.463Z,5.35
2024-03-04T01:40:32.410Z,5.37
2024-03-04T01:43:17.038Z,5.35
2024-03-04T01:45:56.428Z,5.37
2024-03-04T01:48:38.027Z,5.40
2024-03-04T01:51:19.060Z,5.45
2024-03-04T01:53:59.215Z,5.47
2024-03-04T01:56:39.964Z,5.46
2024-03-04T01:59:25.191Z,5.40
2024-03-04T02:02:05.745Z,5.33
2024-03-04T02:04:48.585Z,5.27
2024-03-04T02:07:28.076Z,5.22
2024-03-04T02:10:08.043Z,5.19
2024-03-04T02:12:49.600Z,5.18
2024-03-04T02:15:36.964Z,5.19
2024-03-04T02:18:17.377Z,5.21
2024-03-04T02:21:02.081Z,5.22
2024-03-04T02:23:46.737Z,5.25
2024-03-04T02:26:26.086Z,5.25
2024-03-04T02:29:06.250Z,5.24
2024-03-04T02:31:46.793Z,5.23
2024-03-04T02:34:26.483Z,5.21
2024-03-04T02:37:05.933Z,5.17
2024-03-04T02:39:51.634Z,5.11
2024-03-04T02:42:31.010Z,5.07
2024-03-04T02:45:11.741Z,5.05
2024-03-04T02:47:51.137Z,5.02
2024-03-04T02:50:30.733Z,4.98
2024-03-04T02:53:12.022Z,4.84
2024-03-04T02:55:56.579Z,4.71
2024-03-04T02:58:36.035Z,4.60
2024-03-04T03:01:15.625Z,4.61
2024-03-04T03:03:55.085Z,4.63
2024-03-04T03:06:35.178Z,4.64
2024-03-04T03:09:14.819Z,4.61
2024-03-04T03:11:59.278Z,4.63
2024-03-04T03:14:38.648Z,4.68
2024-03-04T03:17:18.153Z,4.72
2024-03-04T03:19:58.789Z,4.74
2024-03-04T03:22:38.153Z,4.76
2024-03-04T03:25:18.928Z,4.80
2024-03-04T03:28:03.515Z,4.83
2024-03-04T03:30:42.909Z,4.83
2024-03-04T03:33:22.317Z,4.80
2024-03-04T03:36:01.667Z,4.73
2024-03-04T03:38:41.943Z,4.62
2024-03-04T03:41:21.773Z,4.55
2024-03-04T03:44:06.551Z,4.55
2024-03-04T03:46:46.009Z,4.55
2024-03-04T03:49:25.573Z,4.62
2024-03-04T03:52:05.484Z,4.67
2024-03-04T03:54:44.870Z,4.69
2024-03-04T03:57:24.312Z,4.68
2024-03-04T04:00:11.368Z,4.68
2024-03-04T04:02:50.763Z,4.65
2024-03-04T04:05:30.340Z,4.64
2024-03-04T04:08:09.699Z,4.64
2024-03-04T04:10:49.169Z,4.67
2024-03-04T04:13:28.776Z,4.69
2024-03-04T04:16:13.540Z,4.71
2024-03-04T04:18:52.909Z,4.73
2024-03-04T04:21:32.427Z,4.73
2024-03-04T04:24:13.101Z,4.71
2024-03-04T04:26:52.659Z,4.61
2024-03-04T04:29:32.064Z,4.50
2024-03-04T04:32:16.569Z,4.46
2024-03-04T04:34:55.934Z,4.43
2024-03-04T04:37:35.627Z,4.45
2024-03-04T04:40:17.536Z,4.47
2024-03-04T04:42:57.123Z,4.46
2024-03-04T04:45:37.279Z,4.48
2024-03-04T04:48:22.041Z,4.47
2024-03-04T04:51:01.420Z,4.47
2024-03-04T04:53:40.775Z,4.44
2024-03-04T04:56:24.759Z,4.38
2024-03-04T04:59:04.152Z,4.31
2024-03-04T05:01:43.581Z,4.25
2024-03-04T05:04:44.016Z,4.22
2024-03-04T05:07:31.077Z,4.18
2024-03-04T05:10:11.284Z,4.19
2024-03-04T05:12:51.344Z,4.21
2024-03-04T05:15:30.875Z,4.23
2024-03-04T05:18:12.151Z,4.27
2024-03-04T05:20:57.259Z,4.35
2024-03-04T05:23:36.645Z,4.45
2024-03-04T05:26:16.004Z,4.48
2024-03-04T05:28:55.545Z,4.51
2024-03-04T05:31:35.114Z,4.57
2024-03-04T05:34:15.912Z,4.61
2024-03-04T05:37:00.367Z,4.66
2024-03-04T05:39:39.802Z,4.81
2024-03-04T05:42:19.183Z,4.84
2024-03-04T05:44:58.704Z,4.93
2024-03-04T05:47:38.066Z,5.04
2024-03-04T05:50:20.348Z,5.14
2024-03-04T05:53:04.866Z,5.20
2024-03-04T05:55:44.755Z,5.32
2024-03-04T05:58:26.530Z,5.48
2024-03-04T06:01:06.104Z,5.69
2024-03-04T06:03:45.463Z,5.95
2024-03-04T06:06:24.806Z,6.22
2024-03-04T06:09:10.754Z,6.34
2024-03-04T06:11:50.176Z,6.47
2024-03-04T06:14:33.296Z,6.61
2024-03-04T06:17:15.481Z,6.70
2024-03-04T06:19:55.211Z,6.81
2024-03-04T06:22:34.904Z,6.90
2024-03-04T06:25:20.030Z,6.96
2024-03-04T06:27:59.530Z,7.06
2024-03-04T06:30:38.898Z,7.15
2024-03-04T06:33:18.257Z,7.19
2024-03-04T06:35:57.605Z,7.37
2024-03-04T06:38:37.749Z,7.45
2024-03-04T06:41:22.590Z,7.47
2024-03-04T06:44:01.962Z,7.55
2024-03-04T06:46:41.371Z,7.59
2024-03-04T06:49:21.168Z,7.65
2024-03-04T06:52:00.590Z,7.71
2024-03-04T06:54:39.954Z,7.73
2024-03-04T06:57:24.447Z,7.82
2024-03-04T07:00:05.774Z,7.84
2024-03-04T07:02:45.114Z,7.89
2024-03-04T07:05:24.624Z,7.92
2024-03-04T07:08:03.967Z,7.97
2024-03-04T07:10:43.895Z,7.97
2024-03-04T07:13:28.743Z,8.00
2024-03-04T07:16:09.554Z,7.99
2024-03-04T07:18:49.016Z,8.02
2024-03-04T07:21:28.458Z,8.02
2024-03-04T07:24:07.857Z,8.03
2024-03-04T07:26:47.194Z,8.05
2024-03-04T07:29:38.499Z,8.08
2024-03-04T07:32:20.844Z,8.12
2024-03-04T07:35:01.215Z,8.18
2024-03-04T07:37:41.237Z,8.21
2024-03-04T07:40:21.794Z,8.23
2024-03-04T07:43:01.171Z,8.24
2024-03-04T07:45:45.748Z,8.24
2024-03-04T07:48:25.197Z,8.26
2024-03-04T07:51:04.591Z,8.29
2024-03-04T07:53:43.934Z,8.29
2024-03-04T07:56:23.292Z,8.29
2024-03-04T07:59:02.668Z,8.29
2024-03-04T08:01:53.207Z,8.31
2024-03-04T08:04:32.595Z,8.35
2024-03-04T08:07:12.444Z,8.28
2024-03-04T08:09:51.884Z,8.28
2024-03-04T08:12:31.254Z,8.31
2024-03-04T08:15:11.063Z,8.31
2024-03-04T08:17:56.470Z,8.38
2024-03-04T08:20:36.224Z,8.43
2024-03-04T08:23:15.576Z,8.46
2024-03-04T08:25:55.524Z,8.47
2024-03-04T08:28:36.144Z,8.49
2024-03-04T08:31:16.141Z,8.53
2024-03-04T08:34:00.589Z,8.49
2024-03-04T08:36:40.488Z,8.51
2024-03-04T08:39:20.761Z,8.54
2024-03-04T08:42:00.181Z,8.56
2024-03-04T08:44:39.506Z,8.57
2024-03-04T08:47:19.564Z,8.59
2024-03-04T08:50:04.010Z,8.65
2024-03-04T08:52:43.649Z,8.65
2024-03-04T08:55:27.360Z,8.67
2024-03-04T08:58:06.900Z,8.75
2024-03-04T09:00:46.528Z,8.78
2024-03-04T09:03:25.941Z,8.80
2024-03-04T09:06:11.478Z,8.82
2024-03-04T09:08:51.157Z,8.78
2024-03-04T09:11:30.518Z,8.83
2024-03-04T09:14:09.933Z,8.84
2024-03-04T09:16:49.319Z,8.87
2024-03-04T09:19:28.765Z,8.90
2024-03-04T09:22:13.317Z,8.93
2024-03-04T09:24:53.972Z,8.97
2024-03-04T09:27:33.487Z,8.99
2024-03-04T09:30:15.046Z,9.02
2024-03-04T09:32:54.477Z,9.07
2024-03-04T09:35:33.841Z,9.08
2024-03-04T09:38:18.733Z,9.13
2024-03-04T09:40:58.691Z,9.15
2024-03-04T09:43:46.309Z,9.29
2024-03-04T09:46:27.276Z,9.25
2024-03-04T09:49:07.869Z,9.26
2024-03-04T09:51:52.146Z,9.29
2024-03-04T09:54:40.704Z,9.32
2024-03-04T09:57:20.252Z,9.36
2024-03-04T10:00:00.705Z,9.41
2024-03-04T10:02:41.984Z,9.44
2024-03-04T10:05:22.813Z,9.45
2024-03-04T10:08:02.303Z,9.47
2024-03-04T10:10:46.848Z,9.53
2024-03-04T10:13:26.794Z,9.62
2024-03-04T10:16:06.795Z,9.70
2024-03-04T10:18:46.154Z,9.81
2024-03-04T10:21:25.911Z,9.84
2024-03-04T10:24:07.047Z,9.84
2024-03-04T10:26:54.951Z,9.85
2024-03-04T10:29:34.334Z,9.87
2024-03-04T10:32:14.938Z,9.88
2024-03-04T10:34:54.272Z,9.90
2024-03-04T10:37:33.817Z,9.95
2024-03-04T10:40:15.087Z,10.01
2024-03-04T10:42:59.672Z,10.07
2024-03-04T10:45:39.353Z,10.14
2024-03-04T10:48:19.175Z,10.24
2024-03-04T10:50:58.692Z,10.24
2024-03-04T10:53:38.301Z,10.24
2024-03-04T10:56:22.515Z,10.24
2024-03-04T10:59:12.211Z,10.28
2024-03-04T11:01:53.253Z,10.32
2024-03-04T11:04:34.228Z,10.37
2024-03-04T11:07:19.571Z,10.40
2024-03-04T11:10:03.258Z,10.40
2024-03-04T11:12:48.525Z,10.38
2024-03-04T11:15:39.900Z,10.40
2024-03-04T11:18:32.190Z,10.42
2024-03-04T11:21:12.923Z,10.42
2024-03-04T11:23:54.002Z,10.43
2024-03-04T11:26:34.485Z,10.41
2024-03-04T11:29:15.883Z,10.38
2024-03-04T11:32:07.344Z,10.35
2024-03-04T11:35:08.397Z,10.36
2024-03-04T11:37:57.980Z,10.32
2024-03-04T11:40:37.867Z,10.28
2024-03-04T11:43:55.072Z,10.28
2024-03-04T11:46:34.730Z,10.27
2024-03-04T11:49:35.207Z,10.27
2024-03-04T11:52:17.426Z,10.26
2024-03-04T11:54:57.340Z,10.25
2024-03-04T11:57:39.180Z,10.29
2024-03-04T12:00:23.392Z,10.24
2024-03-04T12:03:12.229Z,10.21
2024-03-04T12:05:57.469Z,10.21
2024-03-04T12:08:51.938Z,10.20
2024-03-04T12:11:38.166Z,10.21
2024-03-04T12:14:17.745Z,10.24
2024-03-04T12:16:57.489Z,10.24
2024-03-04T12:19:36.971Z,10.27
2024-03-04T12:22:21.471Z,10.31
2024-03-04T12:25:11.725Z,10.35
2024-03-04T12:27:51.239Z,10.40
2024-03-04T12:30:32.506Z,10.42
2024-03-04T12:33:12.785Z,10.47
2024-03-04T12:35:52.161Z,10.55
2024-03-04T12:38:40.840Z,10.65
2024-03-04T12:41:26.785Z,10.70
2024-03-04T12:44:06.176Z,10.66
2024-03-04T12:46:45.649Z,10.66
2024-03-04T12:49:26.398Z,10.69
2024-03-04T12:52:11.443Z,10.74
2024-03-04T12:54:55.914Z,10.74
2024-03-04T12:57:35.308Z,10.73
2024-03-04T13:00:16.949Z,10.71
2024-03-04T13:02:56.905Z,10.76
2024-03-04T13:05:36.387Z,10.75
2024-03-04T13:08:17.213Z,10.72
2024-03-04T13:11:01.817Z,10.73
2024-03-04T13:13:41.424Z,10.75
2024-03-04T13:16:20.944Z,10.79
2024-03-04T13:19:00.292Z,10.80
2024-03-04T13:21:39.689Z,10.85
2024-03-04T13:24:19.078Z,10.89
2024-03-04T13:27:05.363Z,10.91
2024-03-04T13:29:44.748Z,10.93
2024-03-04T13:32:24.667Z,10.88
2024-03-04T13:35:04.045Z,10.85
2024-03-04T13:37:44.013Z,10.79
2024-03-04T13:40:23.581Z,10.76
2024-03-04T13:43:15.529Z,10.73
2024-03-04T13:45:58.998Z,10.70
2024-03-04T13:48:38.415Z,10.66
2024-03-04T13:51:17.809Z,10.61
2024-03-04T13:53:57.165Z,10.61
2024-03-04T13:56:37.383Z,10.62
2024-03-04T13:59:21.814Z,10.65
2024-03-04T14:02:01.209Z,10.69
2024-03-04T14:04:40.688Z,10.68
2024-03-04T14:07:20.177Z,10.68
2024-03-04T14:09:59.665Z,10.67
2024-03-04T14:12:39.027Z,10.66
2024-03-04T14:15:23.671Z,10.65
2024-03-04T14:18:03.133Z,10.61
2024-03-04T14:20:42.572Z,10.59
2024-03-04T14:23:21.903Z,10.59
2024-03-04T14:26:01.423Z,10.57
2024-03-04T14:28:41.032Z,10.55
2024-03-04T14:31:26.013Z,10.56
2024-03-04T14:34:05.530Z,10.58
2024-03-04T14:36:44.908Z,10.60
2024-03-04T14:39:24.285Z,10.60
2024-03-04T14:42:03.678Z,10.61
2024-03-04T14:44:43.033Z,10.67
2024-03-04T14:47:29.545Z,10.71
2024-03-04T14:50:10.018Z,10.75
2024-03-04T14:52:49.488Z,10.75
2024-03-04T14:55:28.983Z,10.71
2024-03-04T14:58:08.394Z,10.67
2024-03-04T15:00:48.023Z,10.69
2024-03-04T15:03:33.695Z,10.68
2024-03-04T15:06:13.117Z,10.66
2024-03-04T15:08:53.270Z,10.66
2024-03-04T15:11:32.715Z,10.65
2024-03-04T15:14:12.078Z,10.65
2024-03-04T15:16:57.884Z,10.65
2024-03-04T15:19:43.052Z,10.67
2024-03-04T15:22:22.433Z,10.68
2024-03-04T15:25:01.839Z,10.66
2024-03-04T15:27:42.180Z,10.64
2024-03-04T15:30:22.282Z,10.62
2024-03-04T15:33:01.700Z,10.62
2024-03-04T15:35:46.892Z,10.56
2024-03-04T15:38:26.650Z,10.52
2024-03-04T15:41:06.188Z,10.51
2024-03-04T15:43:45.784Z,10.52
2024-03-04T15:46:30.657Z,10.51
2024-03-04T15:49:10.108Z,10.49
2024-03-04T15:51:57.132Z,10.48
2024-03-04T15:54:37.081Z,10.49
2024-03-04T15:57:16.475Z,10.48
2024-03-04T15:59:56.321Z,10.48
2024-03-04T16:02:35.732Z,10.49
2024-03-04T16:05:16.568Z,10.48
2024-03-04T16:08:01.127Z,10.48
2024-03-04T16:10:41.039Z,10.49
2024-03-04T16:13:20.789Z,10.46
2024-03-04T16:16:00.743Z,10.44
2024-03-04T16:18:40.175Z,10.46
2024-03-04T16:21:20.718Z,10.49
2024-03-04T16:24:05.254Z,10.50
2024-03-04T16:26:44.864Z,10.50
2024-03-04T16:29:24.434Z,10.49
2024-03-04T16:32:04.081Z,10.46
2024-03-04T16:34:43.486Z,10.46
2024-03-04T16:37:23.280Z,10.40
2024-03-04T16:40:14.486Z,10.37
2024-03-04T16:42:54.318Z,10.34
2024-03-04T16:45:33.798Z,10.33
2024-03-04T16:48:13.973Z,10.33
2024-03-04T16:50:53.374Z,10.34
2024-03-04T16:53:32.725Z,10.34
2024-03-04T16:56:17.624Z,10.32
2024-03-04T16:58:57.000Z,10.29
2024-03-04T17:01:38.959Z,10.30
2024-03-04T17:04:22.989Z,10.26
2024-03-04T17:07:02.388Z,10.24
2024-03-04T17:09:44.669Z,10.26
2024-03-04T17:12:30.809Z,10.26
2024-03-04T17:15:10.559Z,10.28
2024-03-04T17:17:49.993Z,10.28
2024-03-04T17:20:29.295Z,10.28
2024-03-04T17:23:08.607Z,10.30
2024-03-04T17:25:48.243Z,10.28
2024-03-04T17:28:32.745Z,10.29
2024-03-04T17:31:12.969Z,10.31
2024-03-04T17:33:52.276Z,10.31
2024-03-04T17:36:31.558Z,10.29
2024-03-04T17:39:10.912Z,10.29
2024-03-04T17:41:50.147Z,10.28
2024-03-04T17:44:34.510Z,10.25
2024-03-04T17:47:14.273Z,10.24
2024-03-04T17:49:54.451Z,10.23
2024-03-04T17:52:34.454Z,10.25
2024-03-04T17:55:14.563Z,10.24
2024-03-04T17:57:54.026Z,10.23
2024-03-04T18:00:38.418Z,10.25
2024-03-04T18:03:17.878Z,10.28
2024-03-04T18:05:57.638Z,10.26
2024-03-04T18:08:38.854Z,10.26
2024-03-04T18:11:18.429Z,10.25
2024-03-04T18:13:59.753Z,10.22
2024-03-04T18:16:44.833Z,10.22
2024-03-04T18:19:24.208Z,10.24
2024-03-04T18:22:05.531Z,10.24
2024-03-04T18:24:44.795Z,10.22
2024-03-04T18:27:24.084Z,10.16
2024-03-04T18:30:05.040Z,10.12
2024-03-04T18:32:49.531Z,10.10
2024-03-04T18:35:28.991Z,10.11
2024-03-04T18:38:08.283Z,10.08
2024-03-04T18:40:47.654Z,10.05
2024-03-04T18:43:27.111Z,10.05
2024-03-04T18:46:06.451Z,10.03
2024-03-04T18:48:51.548Z,9.99
2024-03-04T18:51:30.819Z,9.98
2024-03-04T18:54:10.157Z,9.97
2024-03-04T18:56:51.866Z,9.96
2024-03-04T18:59:31.111Z,9.94
2024-03-04T19:02:10.510Z,9.95
2024-03-04T19:04:54.928Z,9.94
2024-03-04T19:07:34.353Z,9.95
2024-03-04T19:10:14.736Z,9.95
2024-03-04T19:12:54.046Z,9.92
2024-03-04T19:15:33.343Z,9.92
2024-03-04T19:18:13.217Z,9.95
2024-03-04T19:20:57.526Z,9.95
2024-03-04T19:23:38.644Z,9.91
2024-03-04T19:26:22.322Z,9.87
2024-03-04T19:29:01.576Z,9.84
2024-03-04T19:31:40.874Z,9.84
2024-03-04T19:34:21.185Z,9.84
2024-03-04T19:37:06.616Z,9.85
2024-03-04T19:39:45.855Z,9.86
2024-03-04T19:42:26.341Z,9.86
2024-03-04T19:45:05.986Z,9.86
2024-03-04T19:47:45.265Z,9.85
2024-03-04T19:50:24.619Z,9.80
2024-03-04T19:53:08.936Z,9.77
2024-03-04T19:55:50.053Z,9.75
2024-03-04T19:58:29.391Z,9.72
2024-03-04T20:01:10.199Z,9.70
2024-03-04T20:03:50.930Z,9.69
2024-03-04T20:06:30.237Z,9.67
2024-03-04T20:09:16.083Z,9.66
2024-03-04T20:11:55.459Z,9.67
2024-03-04T20:14:34.992Z,9.68
2024-03-04T20:17:15.130Z,9.67
2024-03-04T20:19:54.440Z,9.68
2024-03-04T20:22:33.837Z,9.69
2024-03-04T20:25:18.733Z,9.68
2024-03-04T20:27:58.013Z,9.66
2024-03-04T20:30:37.441Z,9.63
2024-03-04T20:33:17.631Z,9.62
2024-03-04T20:35:56.981Z,9.62
2024-03-04T20:38:36.309Z,9.62
2024-03-04T20:41:20.705Z,9.62
2024-03-04T20:44:01.535Z,9.62
2024-03-04T20:46:40.827Z,9.63
2024-03-04T20:49:20.177Z,9.64
2024-03-04T20:51:59.513Z,9.61
2024-03-04T20:54:38.810Z,9.58
2024-03-04T20:57:23.148Z,9.56
2024-03-04T21:00:02.459Z,9.57
2024-03-04T21:02:41.723Z,9.58
2024-03-04T21:05:24.452Z,9.56
2024-03-04T21:08:04.303Z,9.54
2024-03-04T21:10:44.919Z,9.55
2024-03-04T21:13:29.406Z,9.54
2024-03-04T21:16:08.830Z,9.55
2024-03-04T21:18:48.136Z,9.54
2024-03-04T21:21:27.621Z,9.54
2024-03-04T21:24:06.978Z,9.55
2024-03-04T21:26:46.235Z,9.57
2024-03-04T21:29:30.564Z,9.59
2024-03-04T21:32:09.924Z,9.60
2024-03-04T21:34:50.206Z,9.60
2024-03-04T21:37:32.270Z,9.59
2024-03-04T21:40:14.030Z,9.61
2024-03-04T21:42:53.355Z,9.60
2024-03-04T21:45:37.861Z,9.60
2024-03-04T21:48:17.964Z,9.57
2024-03-04T21:50:57.276Z,9.55
2024-03-04T21:53:36.532Z,9.48
2024-03-04T21:56:16.494Z,9.43
2024-03-04T21:58:55.811Z,9.40
2024-03-04T22:01:40.283Z,9.40
2024-03-04T22:04:21.549Z,9.40
2024-03-04T22:07:02.045Z,9.36
2024-03-04T22:09:41.326Z,9.35
2024-03-04T22:12:20.963Z,9.37
2024-03-04T22:15:01.021Z,9.38
2024-03-04T22:17:45.360Z,9.39
2024-03-04T22:20:24.967Z,9.39
2024-03-04T22:23:04.258Z,9.40
2024-03-04T22:25:43.568Z,9.40
2024-03-04T22:28:22.865Z,9.40
2024-03-04T22:31:02.163Z,9.41
2024-03-04T22:33:46.581Z,9.46
2024-03-04T22:36:26.048Z,9.52
2024-03-04T22:39:07.596Z,9.55
2024-03-04T22:41:53.285Z,9.58
2024-03-04T22:44:32.507Z,9.61
2024-03-04T22:47:12.168Z,9.63
2024-03-04T22:49:56.569Z,9.63
2024-03-04T22:52:35.907Z,9.63
2024-03-04T22:55:16.902Z,9.63
2024-03-04T22:57:56.241Z,9.60
2024-03-04T23:00:40.263Z,9.58
2024-03-04T23:03:19.543Z,9.56
2024-03-04T23:06:05.825Z,9.55
2024-03-04T23:08:45.052Z,9.52
2024-03-04T23:11:26.023Z,9.47
2024-03-04T23:14:05.990Z,9.44
2024-03-04T23:16:45.379Z,9.43
2024-03-04T23:19:24.782Z,9.41
2024-03-04T23:22:09.383Z,9.41
2024-03-04T23:24:48.700Z,9.42
2024-03-04T23:27:28.114Z,9.42
2024-03-04T23:30:07.667Z,9.42
2024-03-04T23:32:47.089Z,9.42
2024-03-04T23:35:26.448Z,9.40
2024-03-04T23:38:11.090Z,9.38
2024-03-04T23:40:50.446Z,9.37
2024-03-04T23:43:29.886Z,9.35
2024-03-04T23:46:09.567Z,9.29
2024-03-04T23:48:49.031Z,9.25
2024-03-04T23:51:30.200Z,9.21
2024-03-04T23:54:16.490Z,9.16
2024-03-04T23:56:55.760Z,9.13
2024-03-04T23:59:35.053Z,9.12
